Time;durP1;ratioP1;P1;durP2;ratioP2;P2;SDS_P1;SDS_P2;PMS_P1;PMS_P2;Temp;Humidity;BMP_temperature;BMP_pressure;BME280_temperature;BME280_humidity;BME280_pressure;Samples;Min_cycle;Max_cycle;Signal;HPM_P1;HPM_P2
2022/02/25 00:09:41;;;;;;;46.61;25.97;;;;;;;3.13;75.48;100373.73;371390;142;876397;-56
2022/02/25 00:10:43;;;;;;;39.77;23.91;;;;;;;3.04;75.44;100377.77;364560;147;856088;-56
2022/02/25 00:11:45;;;;;;;38.11;21.33;;;;;;;3.01;75.50;100379.37;364215;146;856110;-55
2022/02/25 00:12:47;;;;;;;35.45;20.64;;;;;;;3.02;75.54;100378.55;363772;145;856240;-56
2022/02/25 00:13:49;;;;;;;34.20;20.73;;;;;;;3.01;75.52;100382.78;364456;145;856136;-56
2022/02/25 00:14:52;;;;;;;34.50;20.29;;;;;;;3.02;75.48;100371.73;364264;145;856991;-55
2022/02/25 00:15:57;;;;;;;35.43;19.13;;;;;;;3.07;75.45;100371.88;363069;145;863756;-55
2022/02/25 00:16:57;;;;;;;32.90;18.96;;;;;;;3.14;75.38;100372.91;363553;145;856351;-55
2022/02/25 00:17:59;;;;;;;35.38;19.62;;;;;;;3.23;75.17;100367.20;363674;145;863961;-56
2022/02/25 00:19:01;;;;;;;31.57;19.18;;;;;;;3.29;74.87;100375.06;363519;145;864328;-56
2022/02/25 00:20:03;;;;;;;31.51;18.25;;;;;;;3.41;74.76;100374.56;363865;146;864324;-55
2022/02/25 00:21:05;;;;;;;33.82;19.61;;;;;;;3.50;74.43;100373.10;364501;146;863851;-56
2022/02/25 00:22:07;;;;;;;30.92;17.50;;;;;;;3.62;74.03;100369.14;363544;145;856297;-56
2022/02/25 00:23:09;;;;;;;33.24;20.29;;;;;;;3.72;73.67;100370.27;364058;145;863920;-55
2022/02/25 00:24:11;;;;;;;33.49;19.48;;;;;;;3.78;73.08;100370.44;364157;145;863791;-56
2022/02/25 00:25:13;;;;;;;35.02;20.96;;;;;;;3.83;72.69;100368.02;363927;145;864009;-55
2022/02/25 00:26:14;;;;;;;36.39;20.49;;;;;;;3.86;72.61;100368.94;364375;145;856136;-55
2022/02/25 00:27:16;;;;;;;31.19;18.85;;;;;;;3.92;72.53;100370.81;363796;146;857779;-56
2022/02/25 00:28:18;;;;;;;31.40;20.27;;;;;;;3.97;72.34;100365.79;363936;145;856787;-56
2022/02/25 00:29:20;;;;;;;32.07;19.70;;;;;;;4.00;71.96;100363.30;362966;145;863843;-55
2022/02/25 00:30:23;;;;;;;31.61;18.79;;;;;;;3.99;71.71;100365.02;363644;146;856878;-55
2022/02/25 00:31:24;;;;;;;33.22;20.11;;;;;;;4.02;71.87;100367.66;363983;145;857508;-55
2022/02/25 00:32:26;;;;;;;31.35;20.48;;;;;;;4.06;71.68;100358.34;364262;145;864671;-55
2022/02/25 00:33:28;;;;;;;29.95;19.19;;;;;;;4.09;71.47;100361.86;364185;145;863958;-56
2022/02/25 00:34:30;;;;;;;32.93;19.44;;;;;;;4.09;71.15;100364.42;364008;145;856290;-56
2022/02/25 00:35:32;;;;;;;30.92;18.97;;;;;;;4.13;71.34;100365.35;364669;145;865007;-55
2022/02/25 00:36:33;;;;;;;32.00;18.70;;;;;;;4.16;71.23;100362.86;364003;145;857414;-56
2022/02/25 00:37:36;;;;;;;32.96;20.29;;;;;;;4.24;71.15;100358.83;363588;145;864454;-56
2022/02/25 00:38:37;;;;;;;31.80;18.81;;;;;;;4.28;70.81;100362.31;363573;145;857031;-55
2022/02/25 00:39:39;;;;;;;32.32;19.46;;;;;;;4.29;70.48;100358.92;363691;145;856384;-56
2022/02/25 00:40:41;;;;;;;29.50;17.94;;;;;;;4.33;70.70;100357.31;363398;145;864266;-55
2022/02/25 00:41:43;;;;;;;34.29;20.77;;;;;;;4.35;70.14;100358.22;363401;145;863870;-56
2022/02/25 00:42:45;;;;;;;29.20;18.79;;;;;;;;;;363970;145;856280;-56
2022/02/25 00:43:47;;;;;;;34.68;20.09;;;;;;;;;;364052;146;863911;-56
2022/02/25 00:44:48;;;;;;;33.38;21.23;;;;;;;;;;363657;145;856179;-55
2022/02/25 00:45:50;;;;;;;34.82;20.14;;;;;;;;;;363955;146;863362;-56
2022/02/25 00:46:51;;;;;;;34.25;21.20;;;;;;;;;;363885;145;856720;-56
2022/02/25 00:47:53;;;;;;;36.40;22.15;;;;;;;;;;364019;145;856699;-55
2022/02/25 00:48:54;;;;;;;36.09;22.88;;;;;;;;;;364258;145;856668;-56
2022/02/25 00:49:56;;;;;;;37.22;23.21;;;;;;;;;;363558;145;863873;-56
2022/02/25 00:50:57;;;;;;;41.56;24.39;;;;;;;;;;363751;145;857042;-56
2022/02/25 00:51:59;;;;;;;39.01;23.90;;;;;;;;;;363593;145;863935;-56
2022/02/25 00:53:01;;;;;;;41.15;24.67;;;;;;;;;;363327;145;864421;-56
2022/02/25 00:54:02;;;;;;;41.61;25.39;;;;;;;;;;363449;145;857149;-57
2022/02/25 00:55:04;;;;;;;41.66;24.51;;;;;;;;;;364699;145;863772;-56
2022/02/25 00:56:06;;;;;;;46.61;25.26;;;;;;;;;;364079;145;856254;-55
2022/02/25 00:57:07;;;;;;;44.51;26.21;;;;;;;;;;363037;145;856744;-56
2022/02/25 00:58:09;;;;;;;41.80;26.73;;;;;;;;;;363568;146;863879;-55
2022/02/25 00:59:10;;;;;;;42.56;25.01;;;;;;;;;;363511;145;863715;-56
2022/02/25 01:00:13;;;;;;;41.51;25.88;;;;;;;;;;363639;145;864717;-56
2022/02/25 01:01:15;;;;;;;42.77;26.46;;;;;;;;;;364333;146;863881;-56
2022/02/25 01:02:16;;;;;;;43.86;26.11;;;;;;;;;;364038;145;856635;-56
2022/02/25 01:03:18;;;;;;;43.53;26.45;;;;;;;;;;364261;145;857227;-55
2022/02/25 01:04:19;;;;;;;48.30;27.53;;;;;;;;;;363227;145;863901;-55
2022/02/25 01:05:21;;;;;;;41.12;25.22;;;;;;;;;;364091;145;857250;-56
2022/02/25 01:06:22;;;;;;;46.94;26.51;;;;;;;;;;363940;145;857957;-55
2022/02/25 01:07:24;;;;;;;45.54;26.59;;;;;;;;;;364422;145;863873;-56
2022/02/25 01:08:25;;;;;;;46.99;26.47;;;;;;;;;;363592;146;864005;-56
2022/02/25 01:09:27;;;;;;;42.89;26.04;;;;;;;;;;363015;145;856303;-55
2022/02/25 01:10:29;;;;;;;46.72;26.39;;;;;;;;;;356845;150;856636;-57
2022/02/25 01:11:31;;;;;;;44.69;27.67;;;;;;;;;;356317;149;864581;-55
2022/02/25 01:12:32;;;;;;;41.12;25.75;;;;;;;;;;356758;149;856254;-56
2022/02/25 01:13:34;;;;;;;42.43;25.38;;;;;;;;;;356887;148;856670;-56
2022/02/25 01:14:36;;;;;;;42.45;25.75;;;;;;;;;;355946;149;856380;-55
2022/02/25 01:15:37;;;;;;;46.70;25.55;;;;;;;;;;356379;149;863972;-55
2022/02/25 01:16:39;;;;;;;46.69;26.19;;;;;;;;;;356581;150;864008;-55
2022/02/25 01:17:40;;;;;;;44.54;25.88;;;;;;;;;;356562;150;856136;-55
2022/02/25 01:18:42;;;;;;;44.87;24.78;;;;;;;;;;356205;149;863992;-55
2022/02/25 01:19:43;;;;;;;45.64;24.94;;;;;;;;;;356540;150;856559;-56
2022/02/25 01:20:45;;;;;;;47.83;26.48;;;;;;;;;;356127;150;863777;-55
2022/02/25 01:21:46;;;;;;;48.54;26.55;;;;;;;;;;355959;149;863760;-55
2022/02/25 01:22:48;;;;;;;44.65;25.87;;;;;;;;;;356313;149;863819;-55
2022/02/25 01:23:50;;;;;;;49.73;27.60;;;;;;;;;;356243;150;860169;-55
2022/02/25 01:24:51;;;;;;;44.53;26.39;;;;;;;;;;355973;149;857259;-56
2022/02/25 01:25:53;;;;;;;43.30;26.30;;;;;;;;;;356350;149;863797;-55
2022/02/25 01:26:54;;;;;;;47.59;26.00;;;;;;;;;;356009;149;863819;-55
2022/02/25 01:27:56;;;;;;;43.74;26.43;;;;;;;;;;356366;149;858043;-56
2022/02/25 01:28:58;;;;;;;42.99;25.32;;;;;;;;;;356238;149;864041;-55
2022/02/25 01:29:59;;;;;;;45.34;26.17;;;;;;;;;;356347;149;863899;-56
2022/02/25 01:31:01;;;;;;;45.11;24.92;;;;;;;;;;356866;149;856777;-55
2022/02/25 01:32:03;;;;;;;44.91;24.70;;;;;;;;;;356035;149;856601;-58
2022/02/25 01:33:05;;;;;;;44.49;25.71;;;;;;;;;;356349;149;856212;-55
2022/02/25 01:34:06;;;;;;;51.88;25.19;;;;;;;;;;356210;149;856794;-55
2022/02/25 01:35:08;;;;;;;46.13;25.99;;;;;;;;;;356360;149;864283;-56
2022/02/25 01:36:10;;;;;;;44.85;24.33;;;;;;;;;;356613;149;863740;-55
2022/02/25 01:37:12;;;;;;;44.05;24.61;;;;;;;;;;356581;149;856140;-55
2022/02/25 01:38:13;;;;;;;44.38;25.48;;;;;;;;;;356553;149;856001;-55
2022/02/25 01:39:15;;;;;;;45.38;26.09;;;;;;;;;;356305;149;856418;-56
2022/02/25 01:40:16;;;;;;;46.86;24.94;;;;;;;;;;356378;149;856185;-55
2022/02/25 01:41:18;;;;;;;45.11;25.04;;;;;;;;;;357049;149;864516;-55
2022/02/25 01:42:20;;;;;;;44.48;24.68;;;;;;;;;;356177;149;863673;-55
2022/02/25 01:43:22;;;;;;;43.54;25.09;;;;;;;;;;356776;149;864920;-55
2022/02/25 01:44:24;;;;;;;42.54;24.20;;;;;;;;;;356783;149;863786;-55
2022/02/25 01:45:26;;;;;;;44.93;26.18;;;;;;;;;;356156;150;856274;-55
2022/02/25 01:46:27;;;;;;;49.49;26.06;;;;;;;;;;356596;149;856309;-55
2022/02/25 01:47:29;;;;;;;44.74;25.91;;;;;;;;;;356180;149;856595;-56
2022/02/25 01:48:30;;;;;;;42.30;25.44;;;;;;;;;;356481;150;858958;-55
2022/02/25 01:49:32;;;;;;;44.73;25.31;;;;;;;;;;356421;149;856609;-55
2022/02/25 01:50:35;;;;;;;41.63;25.43;;;;;;;;;;356623;149;856665;-55
2022/02/25 01:51:37;;;;;;;47.06;26.21;;;;;;;;;;356475;150;857638;-54
2022/02/25 01:52:43;;;;;;;48.91;26.02;;;;;;;;;;356305;149;856601;-55
2022/02/25 01:53:44;;;;;;;46.66;24.57;;;;;;;;;;355722;149;856202;-55
2022/02/25 01:54:46;;;;;;;46.20;27.01;;;;;;;;;;356540;149;856603;-55
2022/02/25 01:55:48;;;;;;;40.99;23.95;;;;;;;;;;356404;148;863936;-55
2022/02/25 01:56:49;;;;;;;42.08;25.79;;;;;;;;;;356170;149;856918;-55
2022/02/25 01:57:51;;;;;;;43.81;25.12;;;;;;;;;;356394;149;856836;-55
2022/02/25 01:58:52;;;;;;;40.82;24.04;;;;;;;;;;356038;150;856595;-55
2022/02/25 01:59:54;;;;;;;44.66;26.27;;;;;;;;;;349852;152;857265;-56
2022/02/25 02:00:59;;;;;;;46.76;24.80;;;;;;;;;;349739;150;863961;-55
2022/02/25 02:01:59;;;;;;;48.29;25.76;;;;;;;;;;356354;149;864108;-55
2022/02/25 02:03:01;;;;;;;47.20;25.61;;;;;;;;;;356188;148;856128;-55
2022/02/25 02:04:02;;;;;;;42.34;25.14;;;;;;;;;;356376;149;864078;-55
2022/02/25 02:05:04;;;;;;;45.05;25.29;;;;;;;;;;356089;149;863905;-56
2022/02/25 02:06:07;;;;;;;46.05;23.85;;;;;;;;;;357003;148;856176;-56
2022/02/25 02:07:08;;;;;;;43.07;25.44;;;;;;;;;;356371;149;856437;-56
2022/02/25 02:08:10;;;;;;;41.08;24.64;;;;;;;;;;356518;149;856116;-55
2022/02/25 02:09:11;;;;;;;39.46;23.94;;;;;;;;;;356335;150;856416;-55
2022/02/25 02:10:13;;;;;;;44.62;26.01;;;;;;;;;;357425;147;856959;-56
2022/02/25 02:11:29;;;;;;;40.41;24.68;;;;;;;;;;360062;147;856423;-55
2022/02/25 02:12:30;;;;;;;48.00;25.61;;;;;;;;;;360280;148;856549;-55
2022/02/25 02:13:32;;;;;;;40.51;24.65;;;;;;;;;;360287;147;856520;-55
2022/02/25 02:14:34;;;;;;;41.06;24.63;;;;;;;;;;359057;148;864242;-55
2022/02/25 02:15:35;;;;;;;42.64;24.24;;;;;;;;;;360661;147;856928;-55
2022/02/25 02:16:37;;;;;;;41.73;24.69;;;;;;;;;;360359;148;856506;-55
2022/02/25 02:17:38;;;;;;;44.11;25.72;;;;;;;;;;360098;147;856497;-55
2022/02/25 02:18:40;;;;;;;43.20;25.59;;;;;;;;;;360218;147;857227;-55
2022/02/25 02:19:41;;;;;;;46.91;24.66;;;;;;;;;;360457;148;856296;-55
2022/02/25 02:20:43;;;;;;;42.64;24.50;;;;;;;;;;360759;147;864066;-56
2022/02/25 02:21:46;;;;;;;44.67;24.07;;;;;;;;;;359801;147;857101;-55
2022/02/25 02:22:47;;;;;;;43.15;25.79;;;;;;;;;;351704;150;856924;-55
2022/02/25 02:23:49;;;;;;;43.75;23.27;;;;;;;;;;347015;153;857057;-55
2022/02/25 02:24:50;;;;;;;45.09;24.75;;;;;;;;;;346681;153;856447;-55
2022/02/25 02:25:52;;;;;;;42.04;23.93;;;;;;;;;;348834;151;856625;-55
2022/02/25 02:26:53;;;;;;;44.30;24.18;;;;;;;;;;352443;151;856970;-55
2022/02/25 02:29:16;;;;;;;40.34;23.27;;;;;;;;;;333870;158;857795;-55
2022/02/25 02:30:20;;;;;;;46.31;25.81;;;;;;;;;;334013;159;857313;-55
2022/02/25 02:31:22;;;;;;;43.81;25.17;;;;;;;;;;334609;159;856546;-56
2022/02/25 02:32:23;;;;;;;42.71;24.44;;;;;;;;;;333961;159;857027;-54
2022/02/25 02:33:25;;;;;;;42.31;24.34;;;;;;;;;;334579;159;863953;-55
2022/02/25 02:34:26;;;;;;;41.66;24.14;;;;;;;;;;334037;158;858852;-55
2022/02/25 02:35:28;;;;;;;39.74;23.26;;;;;;;;;;346573;151;864555;-55
2022/02/25 02:36:30;;;;;;;40.19;23.56;;;;;;;;;;352698;150;864864;-55
2022/02/25 02:37:31;;;;;;;40.26;24.78;;;;;;;;;;350013;153;863831;-57
2022/02/25 02:38:33;;;;;;;44.32;24.57;;;;;;;;;;346374;152;863970;-55
2022/02/25 02:39:34;;;;;;;42.64;24.24;;;;;;;;;;346155;153;858083;-55
2022/02/25 02:40:36;;;;;;;42.54;24.26;;;;;;;;;;347071;151;864532;-55
2022/02/25 02:41:38;;;;;;;44.87;24.57;;;;;;;;;;347561;151;864303;-55
2022/02/25 02:42:40;;;;;;;46.08;25.28;;;;;;;;;;351911;150;856386;-55
2022/02/25 02:43:41;;;;;;;42.34;24.84;;;;;;;;;;351461;151;856199;-55
2022/02/25 02:44:44;;;;;;;37.24;23.19;;;;;;;;;;351803;151;856187;-55
2022/02/25 02:45:46;;;;;;;38.83;24.10;;;;;;;;;;351512;150;856546;-55
2022/02/25 02:46:47;;;;;;;39.30;23.10;;;;;;;;;;351922;150;856612;-55
2022/02/25 02:47:49;;;;;;;44.99;25.11;;;;;;;;;;352446;151;858428;-55
2022/02/25 02:48:50;;;;;;;40.07;23.20;;;;;;;;;;351983;151;858194;-55
2022/02/25 02:49:52;;;;;;;42.08;24.74;;;;;;;;;;351277;150;857369;-55
2022/02/25 02:50:53;;;;;;;42.43;24.46;;;;;;;;;;351310;151;856807;-55
2022/02/25 02:51:55;;;;;;;42.77;24.31;;;;;;;;;;351756;151;857167;-55
2022/02/25 02:52:57;;;;;;;41.77;23.80;;;;;;;;;;346034;151;864042;-55
2022/02/25 02:53:58;;;;;;;44.99;25.55;;;;;;;;;;346133;153;864052;-55
2022/02/25 02:55:00;;;;;;;41.03;24.15;;;;;;;;;;345906;154;864193;-56
2022/02/25 02:56:02;;;;;;;43.42;23.92;;;;;;;;;;345959;154;858965;-55
2022/02/25 02:57:04;;;;;;;42.20;22.87;;;;;;;;;;345845;153;864479;-57
2022/02/25 02:58:05;;;;;;;40.45;23.77;;;;;;;;;;345660;154;856008;-56
2022/02/25 02:59:07;;;;;;;45.65;24.97;;;;;;;;;;345401;154;863648;-56
2022/02/25 03:00:09;;;;;;;41.21;23.49;;;;;;;;;;346210;153;856258;-55
2022/02/25 03:01:11;;;;;;;39.51;24.35;;;;;;;;;;346433;154;863877;-55
2022/02/25 03:02:12;;;;;;;40.39;23.75;;;;;;;;;;345761;154;855999;-55
2022/02/25 03:03:14;;;;;;;38.71;23.00;;;;;;;;;;345667;154;856450;-55
2022/02/25 03:04:15;;;;;;;43.21;24.02;;;;;;;;;;346319;153;856900;-55
2022/02/25 03:05:18;;;;;;;42.97;24.34;;;;;;;;;;346125;154;856124;-55
2022/02/25 03:06:20;;;;;;;40.65;23.84;;;;;;;;;;346034;153;856677;-55
2022/02/25 03:07:23;;;;;;;41.36;25.04;;;;;;;;;;346188;153;857101;-55
2022/02/25 03:08:25;;;;;;;45.69;25.50;;;;;;;;;;345921;154;863766;-55
2022/02/25 03:09:26;;;;;;;41.71;24.52;;;;;;;;;;345859;154;856214;-56
2022/02/25 03:10:28;;;;;;;41.86;24.71;;;;;;;;;;346076;151;862093;-56
2022/02/25 03:11:30;;;;;;;42.01;25.51;;;;;;;;;;354321;150;864279;-56
2022/02/25 03:12:31;;;;;;;43.71;25.44;;;;;;;;;;363961;145;859879;-56
2022/02/25 03:13:33;;;;;;;43.17;25.46;;;;;;;;;;364782;145;856925;-55
2022/02/25 03:14:36;;;;;;;45.28;25.35;;;;;;;;;;351112;151;856828;-55
2022/02/25 03:15:37;;;;;;;45.13;25.23;;;;;;;;;;363482;146;856877;-55
2022/02/25 03:28:43;;;;;;;41.41;23.66;;;;;;;2.90;75.51;100249.48;368905;142;869577;-56
2022/02/25 03:29:45;;;;;;;32.47;19.10;;;;;;;;;;361849;146;856314;-56
2022/02/25 03:30:47;;;;;;;36.55;21.51;;;;;;;;;;362367;146;856932;-57
2022/02/25 03:31:48;;;;;;;36.87;20.15;;;;;;;;;;362257;146;856816;-57
2022/02/25 03:32:51;;;;;;;34.65;21.03;;;;;;;;;;361694;145;856623;-55
2022/02/25 03:33:52;;;;;;;38.51;22.79;;;;;;;;;;362523;145;858942;-57
2022/02/25 03:34:54;;;;;;;39.52;23.64;;;;;;;;;;361330;145;864343;-55
2022/02/25 03:35:56;;;;;;;39.49;22.59;;;;;;;;;;362197;145;864854;-55
2022/02/25 03:36:57;;;;;;;36.42;22.42;;;;;;;;;;361516;145;858033;-55
2022/02/25 03:37:59;;;;;;;42.26;23.57;;;;;;;;;;362569;145;863760;-56
2022/02/25 03:39:00;;;;;;;39.05;22.86;;;;;;;;;;362004;145;856896;-58
2022/02/25 03:40:03;;;;;;;44.32;23.93;;;;;;;;;;361764;146;863728;-57
2022/02/25 03:41:05;;;;;;;43.07;25.09;;;;;;;;;;361820;145;856721;-57
2022/02/25 03:42:07;;;;;;;40.14;23.78;;;;;;;;;;361893;145;856143;-57
2022/02/25 03:43:08;;;;;;;45.22;25.94;;;;;;;;;;362446;145;856662;-56
2022/02/25 03:44:10;;;;;;;40.97;24.49;;;;;;;;;;362188;145;856861;-55
2022/02/25 03:45:11;;;;;;;41.21;24.53;;;;;;;;;;362279;144;857195;-56
2022/02/25 03:46:14;;;;;;;43.61;24.78;;;;;;;;;;362795;145;856629;-57
2022/02/25 03:47:16;;;;;;;40.92;23.48;;;;;;;;;;362205;145;863890;-57
2022/02/25 03:48:17;;;;;;;46.28;25.01;;;;;;;;;;362011;145;856907;-57
2022/02/25 03:49:19;;;;;;;43.86;24.36;;;;;;;;;;361989;145;863960;-57
2022/02/25 03:50:20;;;;;;;45.91;26.09;;;;;;;;;;362494;145;863745;-56
2022/02/25 03:51:23;;;;;;;40.50;23.59;;;;;;;;;;362010;145;857898;-54
2022/02/25 03:54:22;;;;;;;40.05;23.56;;;;;;;2.86;75.41;100226.31;370854;142;881091;-56
2022/02/25 03:55:23;;;;;;;36.75;19.49;;;;;;;2.75;75.45;100237.11;363210;147;857673;-54
2022/02/25 03:56:25;;;;;;;27.53;17.13;;;;;;;2.74;75.49;100231.97;363756;146;857318;-55
2022/02/25 03:57:27;;;;;;;29.60;17.24;;;;;;;2.72;75.15;100233.63;364124;147;859590;-56
2022/02/25 03:58:29;;;;;;;28.40;16.29;;;;;;;2.73;75.24;100223.42;364046;147;856386;-56
2022/02/25 03:59:31;;;;;;;32.63;17.29;;;;;;;2.76;75.00;100222.66;364369;147;864572;-56
2022/02/25 04:00:33;;;;;;;27.79;16.96;;;;;;;;;;363910;146;856251;-56
2022/02/25 04:01:34;;;;;;;24.79;16.71;;;;;;;;;;364135;147;864071;-57
2022/02/25 04:02:36;;;;;;;31.46;17.45;;;;;;;;;;357677;148;863964;-57
2022/02/25 04:03:38;;;;;;;32.05;18.03;;;;;;;;;;358250;147;856717;-56
2022/02/25 04:04:39;;;;;;;29.66;19.59;;;;;;;;;;364222;147;858015;-55
2022/02/25 04:05:41;;;;;;;32.13;19.16;;;;;;;;;;364443;147;856556;-53
2022/02/25 04:06:42;;;;;;;36.36;21.31;;;;;;;;;;363446;146;857026;-55
2022/02/25 04:07:44;;;;;;;36.45;21.05;;;;;;;;;;363818;147;863737;-55
2022/02/25 04:08:45;;;;;;;33.51;21.49;;;;;;;;;;364502;147;856267;-56
2022/02/25 04:09:47;;;;;;;35.52;21.69;;;;;;;;;;364344;147;857811;-55
2022/02/25 04:10:48;;;;;;;38.19;21.80;;;;;;;;;;363917;146;858273;-55
2022/02/25 04:11:51;;;;;;;36.71;22.19;;;;;;;;;;364356;147;856981;-55
2022/02/25 04:12:52;;;;;;;38.43;23.33;;;;;;;;;;360345;147;863634;-56
2022/02/25 04:13:54;;;;;;;35.21;22.77;;;;;;;;;;358247;147;856006;-56
2022/02/25 04:14:55;;;;;;;37.54;23.26;;;;;;;;;;358245;147;856228;-55
2022/02/25 04:15:57;;;;;;;37.84;22.01;;;;;;;;;;357940;147;863680;-55
2022/02/25 04:16:58;;;;;;;34.54;21.37;;;;;;;;;;357922;147;856670;-55
2022/02/25 04:18:00;;;;;;;38.85;22.92;;;;;;;;;;357859;147;864541;-55
2022/02/25 04:19:04;;;;;;;33.99;21.62;;;;;;;;;;358071;147;857553;-55
2022/02/25 04:20:06;;;;;;;36.29;20.81;;;;;;;;;;357334;148;856194;-55
2022/02/25 04:21:07;;;;;;;37.21;22.02;;;;;;;;;;357699;147;856371;-55
2022/02/25 04:22:09;;;;;;;34.44;20.30;;;;;;;;;;357827;148;857028;-55
2022/02/25 04:23:10;;;;;;;34.86;20.79;;;;;;;;;;357904;147;856783;-56
2022/02/25 04:24:12;;;;;;;37.70;22.25;;;;;;;;;;357773;148;859941;-56
2022/02/25 04:25:14;;;;;;;40.16;22.00;;;;;;;;;;357393;147;863645;-55
2022/02/25 04:26:16;;;;;;;43.01;22.49;;;;;;;;;;357696;149;863854;-56
2022/02/25 04:27:18;;;;;;;40.12;22.51;;;;;;;;;;358101;147;863883;-56
2022/02/25 04:28:20;;;;;;;42.13;23.50;;;;;;;;;;358273;147;856169;-56
2022/02/25 04:29:23;;;;;;;38.40;23.11;;;;;;;;;;358605;147;864578;-56
2022/02/25 04:30:26;;;;;;;39.09;23.94;;;;;;;;;;351406;150;856124;-57
2022/02/25 04:31:27;;;;;;;39.21;21.25;;;;;;;;;;351483;149;856682;-56
2022/02/25 04:32:29;;;;;;;37.57;20.84;;;;;;;;;;357712;147;856231;-56
2022/02/25 04:33:32;;;;;;;40.11;21.97;;;;;;;;;;357897;147;862263;-57
2022/02/25 04:34:33;;;;;;;39.98;23.24;;;;;;;;;;357697;147;864448;-59
2022/02/25 04:35:35;;;;;;;40.51;23.10;;;;;;;;;;357387;148;863889;-58
2022/02/25 04:36:37;;;;;;;40.35;24.88;;;;;;;;;;358054;147;856271;-56
2022/02/25 04:37:39;;;;;;;36.59;23.46;;;;;;;;;;357936;147;864093;-56
2022/02/25 04:38:41;;;;;;;39.72;22.99;;;;;;;;;;358019;147;856588;-57
2022/02/25 04:39:42;;;;;;;41.29;23.84;;;;;;;;;;357928;147;857542;-57
2022/02/25 04:40:44;;;;;;;40.35;23.06;;;;;;;;;;358078;147;856175;-56
2022/02/25 04:41:45;;;;;;;41.79;23.72;;;;;;;;;;357858;147;856251;-56
2022/02/25 04:42:47;;;;;;;43.20;23.99;;;;;;;;;;358297;147;864618;-57
2022/02/25 04:43:49;;;;;;;39.74;23.81;;;;;;;;;;358021;149;856771;-56
2022/02/25 04:44:50;;;;;;;37.93;22.73;;;;;;;;;;357564;148;863665;-58
2022/02/25 04:45:52;;;;;;;41.14;23.52;;;;;;;;;;358019;147;863681;-56
2022/02/25 04:46:53;;;;;;;36.64;22.32;;;;;;;;;;357885;149;863660;-56
2022/02/25 04:47:57;;;;;;;38.16;22.21;;;;;;;;;;357934;148;857053;-55
2022/02/25 04:48:58;;;;;;;37.76;22.29;;;;;;;;;;357675;147;857012;-55
2022/02/25 04:50:00;;;;;;;36.90;22.46;;;;;;;;;;357614;147;856732;-56
2022/02/25 04:51:01;;;;;;;39.29;23.23;;;;;;;;;;358416;147;863665;-56
2022/02/25 04:52:03;;;;;;;36.89;22.04;;;;;;;;;;357325;148;856179;-55
2022/02/25 04:53:05;;;;;;;34.85;21.87;;;;;;;;;;357794;147;856246;-56
2022/02/25 04:54:07;;;;;;;38.83;22.66;;;;;;;;;;358266;147;856311;-56
2022/02/25 04:55:10;;;;;;;37.51;22.42;;;;;;;;;;358475;147;856435;-55
2022/02/25 04:56:13;;;;;;;39.10;23.13;;;;;;;;;;357013;147;858821;-56
2022/02/25 04:57:14;;;;;;;35.57;22.47;;;;;;;;;;357934;147;856590;-54
2022/02/25 04:58:16;;;;;;;37.46;22.98;;;;;;;;;;356839;147;864333;-57
2022/02/25 04:59:18;;;;;;;39.03;22.60;;;;;;;;;;358298;147;856933;-55
2022/02/25 05:00:19;;;;;;;36.74;22.84;;;;;;;;;;358872;147;864298;-58
2022/02/25 05:01:21;;;;;;;38.86;22.75;;;;;;;;;;357770;147;863878;-56
2022/02/25 05:02:22;;;;;;;39.59;23.51;;;;;;;;;;358226;147;863758;-56
2022/02/25 05:03:24;;;;;;;36.01;21.64;;;;;;;;;;357816;147;856334;-53
2022/02/25 05:04:26;;;;;;;43.67;23.53;;;;;;;;;;357866;147;856232;-55
2022/02/25 05:05:27;;;;;;;36.86;22.52;;;;;;;;;;357538;149;856676;-55
2022/02/25 05:06:29;;;;;;;38.20;22.81;;;;;;;;;;357866;147;856335;-56
2022/02/25 05:07:31;;;;;;;37.39;22.69;;;;;;;;;;358564;147;863981;-55
2022/02/25 05:08:32;;;;;;;38.57;22.92;;;;;;;;;;358089;149;856533;-56
2022/02/25 05:09:34;;;;;;;38.00;23.16;;;;;;;;;;358712;148;856859;-56
2022/02/25 05:10:35;;;;;;;37.06;22.40;;;;;;;;;;357608;147;856773;-56
2022/02/25 05:11:37;;;;;;;38.46;22.36;;;;;;;;;;358409;149;856270;-56
2022/02/25 05:12:39;;;;;;;40.16;23.01;;;;;;;;;;358571;147;864231;-54
2022/02/25 05:13:40;;;;;;;37.29;22.40;;;;;;;;;;357838;147;863789;-55
2022/02/25 05:20:23;;;;;;;35.77;22.22;;;;;;;;;;357295;147;856765;-56
2022/02/25 05:21:20;;;;;;;39.15;22.81;;;;;;;;;;357572;147;856112;-56
2022/02/25 05:22:22;;;;;;;35.67;21.87;;;;;;;;;;358522;147;856078;-57
2022/02/25 05:23:24;;;;;;;34.64;21.82;;;;;;;;;;357431;147;856662;-55
2022/02/25 05:24:25;;;;;;;36.28;22.38;;;;;;;;;;357514;148;856626;-56
2022/02/25 05:25:27;;;;;;;37.39;23.11;;;;;;;;;;358192;147;864529;-55
2022/02/25 05:26:29;;;;;;;39.28;22.99;;;;;;;;;;357683;147;856245;-55
2022/02/25 05:27:30;;;;;;;35.94;21.81;;;;;;;;;;358026;147;857084;-55
2022/02/25 05:28:32;;;;;;;34.33;22.63;;;;;;;;;;358161;148;864404;-55
2022/02/25 05:29:33;;;;;;;37.66;21.72;;;;;;;;;;358628;147;864484;-55
2022/02/25 05:30:35;;;;;;;37.04;22.03;;;;;;;;;;357249;147;859422;-55
2022/02/25 05:31:36;;;;;;;36.85;22.30;;;;;;;;;;358052;147;864454;-54
2022/02/25 05:32:38;;;;;;;36.01;21.74;;;;;;;;;;357549;148;856720;-54
2022/02/25 05:33:40;;;;;;;36.31;21.36;;;;;;;;;;357857;147;857285;-55
2022/02/25 05:34:41;;;;;;;38.13;22.35;;;;;;;;;;358305;147;863619;-55
2022/02/25 05:35:43;;;;;;;38.24;23.42;;;;;;;;;;357698;147;857720;-56
2022/02/25 05:36:44;;;;;;;41.13;23.41;;;;;;;;;;357713;147;858018;-54
2022/02/25 05:37:46;;;;;;;37.04;23.28;;;;;;;;;;357809;147;856518;-56
2022/02/25 05:50:43;;;;;;;37.06;20.82;;;;;;;2.93;74.71;100171.95;369993;142;881753;-53
2022/02/25 05:51:45;;;;;;;28.63;18.10;;;;;;;2.82;74.77;100181.91;361947;145;857871;-53
2022/02/25 05:52:47;;;;;;;29.31;16.84;;;;;;;2.81;74.90;100186.97;358877;145;856268;-54
2022/02/25 05:53:48;;;;;;;26.88;16.01;;;;;;;;;;355849;148;863841;-53
2022/02/25 05:54:50;;;;;;;27.48;16.39;;;;;;;;;;355440;148;856407;-53
2022/02/25 05:55:51;;;;;;;28.26;17.94;;;;;;;;;;356487;147;856548;-52
2022/02/25 05:56:53;;;;;;;33.46;18.40;;;;;;;;;;355051;147;863808;-53
2022/02/25 05:57:54;;;;;;;33.83;19.51;;;;;;;;;;354927;147;864443;-56
2022/02/25 05:58:56;;;;;;;35.20;20.12;;;;;;;;;;355221;148;856485;-53
2022/02/25 05:59:58;;;;;;;33.11;20.24;;;;;;;;;;355883;147;856213;-54
2022/02/25 06:00:59;;;;;;;179.24;53.16;;;;;;;;;;355525;148;858139;-53
2022/02/25 06:02:01;;;;;;;82.26;32.40;;;;;;;;;;356120;147;863972;-56
2022/02/25 06:03:02;;;;;;;108.29;39.96;;;;;;;;;;356723;148;863967;-53
2022/02/25 06:04:04;;;;;;;107.28;37.95;;;;;;;;;;356141;148;863800;-55
2022/02/25 06:05:06;;;;;;;63.11;29.14;;;;;;;;;;355835;147;863629;-56
2022/02/25 06:06:08;;;;;;;201.18;71.93;;;;;;;;;;355525;147;856098;-57
2022/02/25 06:07:09;;;;;;;137.41;53.94;;;;;;;;;;354856;147;857035;-55
2022/02/25 06:08:11;;;;;;;83.76;37.01;;;;;;;;;;356164;147;856197;-56
2022/02/25 06:09:13;;;;;;;97.33;41.25;;;;;;;;;;355375;147;856660;-56
2022/02/25 06:10:15;;;;;;;43.24;25.33;;;;;;;;;;356226;147;856717;-55
2022/02/25 06:11:16;;;;;;;70.22;33.06;;;;;;;;;;356475;147;856245;-53
2022/02/25 06:12:18;;;;;;;212.47;84.78;;;;;;;;;;355597;147;856603;-55
2022/02/25 06:13:19;;;;;;;124.99;50.60;;;;;;;;;;355970;147;857123;-56
2022/02/25 06:14:21;;;;;;;116.29;50.92;;;;;;;;;;355693;147;856956;-55
2022/02/25 06:15:22;;;;;;;102.81;44.91;;;;;;;;;;355638;147;856816;-54
2022/02/25 06:16:24;;;;;;;69.20;33.35;;;;;;;;;;355673;147;856635;-55
2022/02/25 06:17:26;;;;;;;76.33;34.04;;;;;;;;;;356066;148;856767;-55
2022/02/25 06:18:27;;;;;;;58.00;29.54;;;;;;;;;;357371;148;857004;-52
2022/02/25 06:19:29;;;;;;;65.47;32.59;;;;;;;;;;356016;147;856336;-56
2022/02/25 06:20:31;;;;;;;92.98;42.41;;;;;;;;;;355477;147;856413;-56
2022/02/25 06:21:33;;;;;;;73.85;33.76;;;;;;;;;;356539;147;857502;-56
2022/02/25 06:22:35;;;;;;;78.65;36.76;;;;;;;;;;356200;147;864021;-56
2022/02/25 06:23:36;;;;;;;81.57;38.83;;;;;;;;;;355140;147;864048;-53
2022/02/25 06:24:38;;;;;;;88.68;43.54;;;;;;;;;;355750;148;864130;-52